sensor_id;sensor_type;location;lat;lon;timestamp;temperature;humidity
14283;DHT22;7225;59.282;18.344;2023-02-15T00:01:56;3.80;99.90
14283;DHT22;7225;59.282;18.344;2023-02-15T00:04:25;3.80;99.90
14283;DHT22;7225;59.282;18.344;2023-02-15T00:07:12;3.80;99.90
14283;DHT22;7225;59.282;18.344;2023-02-15T00:09:38;3.80;99.90
14283;DHT22;7225;59.282;18.344;2023-02-15T00:12:05;3.80;99.90
14283;DHT22;7225;59.282;18.344;2023-02-15T00:14:32;3.80;99.90
14283;DHT22;7225;59.282;18.344;2023-02-15T00:16:59;3.80;99.90
14283;DHT22;7225;59.282;18.344;2023-02-15T00:19:26;3.80;99.90
14283;DHT22;7225;59.282;18.344;2023-02-15T00:21:53;3.90;99.90
14283;DHT22;7225;59.282;18.344;2023-02-15T00:24:20;3.90;99.90
14283;DHT22;7225;59.282;18.344;2023-02-15T00:26:48;3.90;99.90
14283;DHT22;7225;59.282;18.344;2023-02-15T00:29:17;3.90;99.90
14283;DHT22;7225;59.282;18.344;2023-02-15T00:31:44;3.90;99.90
14283;DHT22;7225;59.282;18.344;2023-02-15T00:34:19;3.90;99.90
14283;DHT22;7225;59.282;18.344;2023-02-15T00:36:47;3.90;99.90
14283;DHT22;7225;59.282;18.344;2023-02-15T00:39:15;3.90;99.90
14283;DHT22;7225;59.282;18.344;2023-02-15T00:41:43;3.90;99.90
14283;DHT22;7225;59.282;18.344;2023-02-15T00:44:10;4.00;99.90
14283;DHT22;7225;59.282;18.344;2023-02-15T00:46:37;4.00;99.90
14283;DHT22;7225;59.282;18.344;2023-02-15T00:49:04;4.00;99.90
14283;DHT22;7225;59.282;18.344;2023-02-15T00:51:32;4.00;99.90
14283;DHT22;7225;59.282;18.344;2023-02-15T00:53:59;4.00;99.90
14283;DHT22;7225;59.282;18.344;2023-02-15T00:56:26;4.00;99.90
14283;DHT22;7225;59.282;18.344;2023-02-15T00:58:55;4.10;99.90
14283;DHT22;7225;59.282;18.344;2023-02-15T01:01:22;4.10;99.90
14283;DHT22;7225;59.282;18.344;2023-02-15T01:03:50;4.10;99.90
14283;DHT22;7225;59.282;18.344;2023-02-15T01:06:17;4.10;99.90
14283;DHT22;7225;59.282;18.344;2023-02-15T01:08:45;4.10;99.90
14283;DHT22;7225;59.282;18.344;2023-02-15T01:11:15;4.10;99.90
14283;DHT22;7225;59.282;18.344;2023-02-15T01:13:54;4.10;99.90
14283;DHT22;7225;59.282;18.344;2023-02-15T01:16:23;4.10;99.90
14283;DHT22;7225;59.282;18.344;2023-02-15T01:18:51;4.10;99.90
14283;DHT22;7225;59.282;18.344;2023-02-15T01:21:21;4.10;99.90
14283;DHT22;7225;59.282;18.344;2023-02-15T01:23:49;4.10;99.90
14283;DHT22;7225;59.282;18.344;2023-02-15T01:26:16;4.10;99.90
14283;DHT22;7225;59.282;18.344;2023-02-15T01:28:43;4.20;99.90
14283;DHT22;7225;59.282;18.344;2023-02-15T01:31:13;4.20;99.90
14283;DHT22;7225;59.282;18.344;2023-02-15T01:33:40;4.10;99.90
14283;DHT22;7225;59.282;18.344;2023-02-15T01:36:07;4.20;99.90
14283;DHT22;7225;59.282;18.344;2023-02-15T01:38:35;4.20;99.90
14283;DHT22;7225;59.282;18.344;2023-02-15T01:41:02;4.10;99.90
14283;DHT22;7225;59.282;18.344;2023-02-15T01:44:01;4.20;99.90
14283;DHT22;7225;59.282;18.344;2023-02-15T01:46:52;4.20;99.90
14283;DHT22;7225;59.282;18.344;2023-02-15T01:49:21;4.10;99.90
14283;DHT22;7225;59.282;18.344;2023-02-15T01:51:50;4.20;99.90
14283;DHT22;7225;59.282;18.344;2023-02-15T01:54:27;4.20;99.90
14283;DHT22;7225;59.282;18.344;2023-02-15T01:56:59;4.20;99.90
14283;DHT22;7225;59.282;18.344;2023-02-15T01:59:28;4.20;99.90
14283;DHT22;7225;59.282;18.344;2023-02-15T02:01:58;4.20;99.90
14283;DHT22;7225;59.282;18.344;2023-02-15T02:04:35;4.20;99.90
14283;DHT22;7225;59.282;18.344;2023-02-15T02:07:05;4.20;99.90
14283;DHT22;7225;59.282;18.344;2023-02-15T02:09:33;4.20;99.90
14283;DHT22;7225;59.282;18.344;2023-02-15T02:12:01;4.20;99.90
14283;DHT22;7225;59.282;18.344;2023-02-15T02:14:28;4.30;99.90
14283;DHT22;7225;59.282;18.344;2023-02-15T02:30:35;4.20;99.90
14283;DHT22;7225;59.282;18.344;2023-02-15T02:33:14;4.20;99.90
14283;DHT22;7225;59.282;18.344;2023-02-15T02:43:59;4.20;99.90
14283;DHT22;7225;59.282;18.344;2023-02-15T02:49:40;4.20;99.90
14283;DHT22;7225;59.282;18.344;2023-02-15T02:52:40;4.20;99.90
14283;DHT22;7225;59.282;18.344;2023-02-15T02:58:29;4.20;99.90
14283;DHT22;7225;59.282;18.344;2023-02-15T03:00:32;4.20;99.90
14283;DHT22;7225;59.282;18.344;2023-02-15T03:03:09;4.20;99.90
14283;DHT22;7225;59.282;18.344;2023-02-15T03:05:41;4.20;99.90
14283;DHT22;7225;59.282;18.344;2023-02-15T03:08:11;4.20;99.90
14283;DHT22;7225;59.282;18.344;2023-02-15T03:10:40;4.20;99.90
14283;DHT22;7225;59.282;18.344;2023-02-15T03:13:08;4.20;99.90
14283;DHT22;7225;59.282;18.344;2023-02-15T03:15:38;4.20;99.90
14283;DHT22;7225;59.282;18.344;2023-02-15T03:18:36;4.20;99.90
14283;DHT22;7225;59.282;18.344;2023-02-15T03:21:06;4.20;99.90
14283;DHT22;7225;59.282;18.344;2023-02-15T03:23:36;4.20;99.90
14283;DHT22;7225;59.282;18.344;2023-02-15T03:26:05;4.20;99.90
14283;DHT22;7225;59.282;18.344;2023-02-15T03:28:42;4.20;99.90
14283;DHT22;7225;59.282;18.344;2023-02-15T03:31:12;4.20;99.90
14283;DHT22;7225;59.282;18.344;2023-02-15T03:33:44;4.20;99.90
14283;DHT22;7225;59.282;18.344;2023-02-15T03:36:22;4.20;99.90
14283;DHT22;7225;59.282;18.344;2023-02-15T03:39:18;4.20;99.90
14283;DHT22;7225;59.282;18.344;2023-02-15T03:41:57;4.20;99.90
14283;DHT22;7225;59.282;18.344;2023-02-15T03:44:31;4.30;99.90
14283;DHT22;7225;59.282;18.344;2023-02-15T03:47:06;4.20;99.90
14283;DHT22;7225;59.282;18.344;2023-02-15T03:49:54;4.30;99.90
14283;DHT22;7225;59.282;18.344;2023-02-15T03:52:25;4.30;99.90
14283;DHT22;7225;59.282;18.344;2023-02-15T03:54:54;4.30;99.90
14283;DHT22;7225;59.282;18.344;2023-02-15T03:57:25;4.30;99.90
14283;DHT22;7225;59.282;18.344;2023-02-15T04:00:24;4.20;99.90
14283;DHT22;7225;59.282;18.344;2023-02-15T04:06:00;4.20;99.90
14283;DHT22;7225;59.282;18.344;2023-02-15T04:08:28;4.20;99.90
14283;DHT22;7225;59.282;18.344;2023-02-15T04:11:14;4.20;99.90
14283;DHT22;7225;59.282;18.344;2023-02-15T04:13:41;4.20;99.90
14283;DHT22;7225;59.282;18.344;2023-02-15T04:16:09;4.20;99.90
14283;DHT22;7225;59.282;18.344;2023-02-15T04:18:41;4.20;99.90
14283;DHT22;7225;59.282;18.344;2023-02-15T04:21:29;4.20;99.90
14283;DHT22;7225;59.282;18.344;2023-02-15T04:24:15;4.20;99.90
14283;DHT22;7225;59.282;18.344;2023-02-15T04:27:01;4.20;99.90
14283;DHT22;7225;59.282;18.344;2023-02-15T04:29:29;4.30;99.90
14283;DHT22;7225;59.282;18.344;2023-02-15T04:31:58;4.30;99.90
14283;DHT22;7225;59.282;18.344;2023-02-15T04:34:25;4.20;99.90
14283;DHT22;7225;59.282;18.344;2023-02-15T04:36:52;4.20;99.90
14283;DHT22;7225;59.282;18.344;2023-02-15T04:39:19;4.20;99.90
14283;DHT22;7225;59.282;18.344;2023-02-15T04:41:46;4.30;99.90
14283;DHT22;7225;59.282;18.344;2023-02-15T04:44:15;4.20;99.90
14283;DHT22;7225;59.282;18.344;2023-02-15T04:46:42;4.30;99.90
14283;DHT22;7225;59.282;18.344;2023-02-15T04:49:09;4.30;99.90
14283;DHT22;7225;59.282;18.344;2023-02-15T04:51:36;4.30;99.90
14283;DHT22;7225;59.282;18.344;2023-02-15T04:54:03;4.20;99.90
14283;DHT22;7225;59.282;18.344;2023-02-15T04:56:30;4.30;99.90
14283;DHT22;7225;59.282;18.344;2023-02-15T04:58:57;4.30;99.90
14283;DHT22;7225;59.282;18.344;2023-02-15T05:01:24;4.20;99.90
14283;DHT22;7225;59.282;18.344;2023-02-15T05:03:51;4.30;99.90
14283;DHT22;7225;59.282;18.344;2023-02-15T05:06:18;4.30;99.90
14283;DHT22;7225;59.282;18.344;2023-02-15T05:08:45;4.30;99.90
14283;DHT22;7225;59.282;18.344;2023-02-15T05:11:12;4.20;99.90
14283;DHT22;7225;59.282;18.344;2023-02-15T05:13:39;4.30;99.90
14283;DHT22;7225;59.282;18.344;2023-02-15T05:16:06;4.30;99.90
14283;DHT22;7225;59.282;18.344;2023-02-15T05:18:33;4.20;99.90
14283;DHT22;7225;59.282;18.344;2023-02-15T05:21:01;4.30;99.90
14283;DHT22;7225;59.282;18.344;2023-02-15T05:23:28;4.30;99.90
14283;DHT22;7225;59.282;18.344;2023-02-15T05:25:55;4.30;99.90
14283;DHT22;7225;59.282;18.344;2023-02-15T05:28:41;4.30;99.90
14283;DHT22;7225;59.282;18.344;2023-02-15T05:31:14;4.30;99.90
14283;DHT22;7225;59.282;18.344;2023-02-15T05:33:42;4.30;99.90
14283;DHT22;7225;59.282;18.344;2023-02-15T05:36:10;4.30;99.90
14283;DHT22;7225;59.282;18.344;2023-02-15T05:38:37;4.30;99.90
14283;DHT22;7225;59.282;18.344;2023-02-15T05:41:08;4.30;99.90
14283;DHT22;7225;59.282;18.344;2023-02-15T05:43:36;4.30;99.90
14283;DHT22;7225;59.282;18.344;2023-02-15T05:46:04;4.30;99.90
14283;DHT22;7225;59.282;18.344;2023-02-15T05:48:31;4.30;99.90
14283;DHT22;7225;59.282;18.344;2023-02-15T05:51:04;4.30;99.90
14283;DHT22;7225;59.282;18.344;2023-02-15T05:53:34;4.30;99.90
14283;DHT22;7225;59.282;18.344;2023-02-15T05:56:01;4.40;99.90
14283;DHT22;7225;59.282;18.344;2023-02-15T05:58:32;4.30;99.90
14283;DHT22;7225;59.282;18.344;2023-02-15T06:00:59;4.30;99.90
14283;DHT22;7225;59.282;18.344;2023-02-15T06:03:26;4.30;99.90
14283;DHT22;7225;59.282;18.344;2023-02-15T06:05:55;4.30;99.90
14283;DHT22;7225;59.282;18.344;2023-02-15T06:08:22;4.30;99.90
14283;DHT22;7225;59.282;18.344;2023-02-15T06:10:49;4.30;99.90
14283;DHT22;7225;59.282;18.344;2023-02-15T06:13:16;4.30;99.90
14283;DHT22;7225;59.282;18.344;2023-02-15T06:15:43;4.30;99.90
14283;DHT22;7225;59.282;18.344;2023-02-15T06:18:10;4.30;99.90
14283;DHT22;7225;59.282;18.344;2023-02-15T06:20:37;4.30;99.90
14283;DHT22;7225;59.282;18.344;2023-02-15T06:23:04;4.30;99.90
14283;DHT22;7225;59.282;18.344;2023-02-15T06:25:31;4.30;99.90
14283;DHT22;7225;59.282;18.344;2023-02-15T06:27:59;4.30;99.90
14283;DHT22;7225;59.282;18.344;2023-02-15T06:30:26;4.30;99.90
14283;DHT22;7225;59.282;18.344;2023-02-15T06:32:53;4.30;99.90
14283;DHT22;7225;59.282;18.344;2023-02-15T06:35:20;4.30;99.90
14283;DHT22;7225;59.282;18.344;2023-02-15T06:37:48;4.30;99.90
14283;DHT22;7225;59.282;18.344;2023-02-15T06:40:16;4.30;99.90
14283;DHT22;7225;59.282;18.344;2023-02-15T06:42:43;4.30;99.90
14283;DHT22;7225;59.282;18.344;2023-02-15T06:45:10;4.30;99.90
14283;DHT22;7225;59.282;18.344;2023-02-15T06:47:38;4.30;99.90
14283;DHT22;7225;59.282;18.344;2023-02-15T06:50:06;4.30;99.90
14283;DHT22;7225;59.282;18.344;2023-02-15T06:52:33;4.30;99.90
14283;DHT22;7225;59.282;18.344;2023-02-15T06:55:00;4.30;99.90
14283;DHT22;7225;59.282;18.344;2023-02-15T06:57:27;4.30;99.90
14283;DHT22;7225;59.282;18.344;2023-02-15T06:59:54;4.30;99.90
14283;DHT22;7225;59.282;18.344;2023-02-15T07:02:21;4.30;99.90
14283;DHT22;7225;59.282;18.344;2023-02-15T07:04:48;4.30;99.90
14283;DHT22;7225;59.282;18.344;2023-02-15T07:07:15;4.30;99.90
14283;DHT22;7225;59.282;18.344;2023-02-15T07:09:42;4.30;99.90
14283;DHT22;7225;59.282;18.344;2023-02-15T07:12:09;4.30;99.90
14283;DHT22;7225;59.282;18.344;2023-02-15T07:14:55;4.30;99.90
14283;DHT22;7225;59.282;18.344;2023-02-15T07:17:22;4.30;99.90
14283;DHT22;7225;59.282;18.344;2023-02-15T07:20:07;4.30;99.90
14283;DHT22;7225;59.282;18.344;2023-02-15T07:22:35;4.30;99.90
14283;DHT22;7225;59.282;18.344;2023-02-15T07:25:04;4.30;99.90
14283;DHT22;7225;59.282;18.344;2023-02-15T07:27:31;4.30;99.90
14283;DHT22;7225;59.282;18.344;2023-02-15T07:30:00;4.40;99.90
14283;DHT22;7225;59.282;18.344;2023-02-15T07:32:28;4.40;99.90
14283;DHT22;7225;59.282;18.344;2023-02-15T07:34:56;4.30;99.90
14283;DHT22;7225;59.282;18.344;2023-02-15T07:37:24;4.30;99.90
14283;DHT22;7225;59.282;18.344;2023-02-15T07:39:51;4.30;99.90
14283;DHT22;7225;59.282;18.344;2023-02-15T07:42:19;4.40;99.90
14283;DHT22;7225;59.282;18.344;2023-02-15T07:44:47;4.30;99.90
14283;DHT22;7225;59.282;18.344;2023-02-15T07:47:14;4.30;99.90
14283;DHT22;7225;59.282;18.344;2023-02-15T07:49:41;4.30;99.90
14283;DHT22;7225;59.282;18.344;2023-02-15T07:52:08;4.30;99.90
14283;DHT22;7225;59.282;18.344;2023-02-15T07:54:35;4.40;99.90
14283;DHT22;7225;59.282;18.344;2023-02-15T07:57:03;4.30;99.90
14283;DHT22;7225;59.282;18.344;2023-02-15T07:59:30;4.30;99.90
14283;DHT22;7225;59.282;18.344;2023-02-15T08:01:57;4.30;99.90
14283;DHT22;7225;59.282;18.344;2023-02-15T08:04:25;4.30;99.90
14283;DHT22;7225;59.282;18.344;2023-02-15T08:06:52;4.30;99.90
14283;DHT22;7225;59.282;18.344;2023-02-15T08:09:21;4.30;99.90
14283;DHT22;7225;59.282;18.344;2023-02-15T08:11:48;4.30;99.90
14283;DHT22;7225;59.282;18.344;2023-02-15T08:14:17;4.30;99.90
14283;DHT22;7225;59.282;18.344;2023-02-15T08:17:02;4.30;99.90
14283;DHT22;7225;59.282;18.344;2023-02-15T08:19:32;4.20;99.90
14283;DHT22;7225;59.282;18.344;2023-02-15T08:22:02;4.20;99.90
14283;DHT22;7225;59.282;18.344;2023-02-15T08:24:31;4.30;99.90
14283;DHT22;7225;59.282;18.344;2023-02-15T08:26:59;4.30;99.90
14283;DHT22;7225;59.282;18.344;2023-02-15T08:29:27;4.30;99.90
14283;DHT22;7225;59.282;18.344;2023-02-15T08:31:56;4.20;99.90
14283;DHT22;7225;59.282;18.344;2023-02-15T08:34:25;4.30;99.90
14283;DHT22;7225;59.282;18.344;2023-02-15T08:36:52;4.20;99.90
14283;DHT22;7225;59.282;18.344;2023-02-15T08:39:19;4.30;99.90
14283;DHT22;7225;59.282;18.344;2023-02-15T08:41:47;4.30;99.90
14283;DHT22;7225;59.282;18.344;2023-02-15T08:44:16;4.30;99.90
14283;DHT22;7225;59.282;18.344;2023-02-15T08:46:45;4.30;99.90
14283;DHT22;7225;59.282;18.344;2023-02-15T08:49:16;4.20;99.90
14283;DHT22;7225;59.282;18.344;2023-02-15T08:51:43;4.30;99.90
14283;DHT22;7225;59.282;18.344;2023-02-15T08:54:16;4.20;99.90
14283;DHT22;7225;59.282;18.344;2023-02-15T08:56:44;4.30;99.90
14283;DHT22;7225;59.282;18.344;2023-02-15T08:59:15;4.30;99.90
14283;DHT22;7225;59.282;18.344;2023-02-15T09:01:43;4.30;99.90
14283;DHT22;7225;59.282;18.344;2023-02-15T09:04:11;4.30;99.90
14283;DHT22;7225;59.282;18.344;2023-02-15T09:06:40;4.30;99.90
14283;DHT22;7225;59.282;18.344;2023-02-15T09:09:07;4.30;99.90
14283;DHT22;7225;59.282;18.344;2023-02-15T09:11:37;4.30;99.90
14283;DHT22;7225;59.282;18.344;2023-02-15T09:14:12;4.30;99.90
14283;DHT22;7225;59.282;18.344;2023-02-15T09:16:42;4.30;99.90
14283;DHT22;7225;59.282;18.344;2023-02-15T09:19:13;4.30;99.90
14283;DHT22;7225;59.282;18.344;2023-02-15T09:21:40;4.30;99.90
14283;DHT22;7225;59.282;18.344;2023-02-15T09:24:10;4.40;99.90
14283;DHT22;7225;59.282;18.344;2023-02-15T09:26:40;4.30;99.90
14283;DHT22;7225;59.282;18.344;2023-02-15T09:29:08;4.30;99.90
14283;DHT22;7225;59.282;18.344;2023-02-15T09:31:47;4.30;99.90
14283;DHT22;7225;59.282;18.344;2023-02-15T09:34:17;4.40;99.90
14283;DHT22;7225;59.282;18.344;2023-02-15T09:36:46;4.30;99.90
14283;DHT22;7225;59.282;18.344;2023-02-15T09:39:24;4.40;99.90
14283;DHT22;7225;59.282;18.344;2023-02-15T09:45:09;4.40;99.90
14283;DHT22;7225;59.282;18.344;2023-02-15T09:50:50;4.40;99.90
14283;DHT22;7225;59.282;18.344;2023-02-15T09:53:29;4.40;99.90
14283;DHT22;7225;59.282;18.344;2023-02-15T09:58:46;4.40;99.90
14283;DHT22;7225;59.282;18.344;2023-02-15T10:15:34;4.40;99.90
14283;DHT22;7225;59.282;18.344;2023-02-15T10:18:47;4.30;99.90
14283;DHT22;7225;59.282;18.344;2023-02-15T10:24:58;4.30;99.90
14283;DHT22;7225;59.282;18.344;2023-02-15T10:27:12;4.40;99.90
14283;DHT22;7225;59.282;18.344;2023-02-15T10:30:02;4.40;99.90
14283;DHT22;7225;59.282;18.344;2023-02-15T10:35:24;4.40;99.90
14283;DHT22;7225;59.282;18.344;2023-02-15T10:40:43;4.40;99.90
14283;DHT22;7225;59.282;18.344;2023-02-15T10:51:36;4.40;99.90
14283;DHT22;7225;59.282;18.344;2023-02-15T10:54:35;4.40;99.90
14283;DHT22;7225;59.282;18.344;2023-02-15T10:57:27;4.40;99.90
14283;DHT22;7225;59.282;18.344;2023-02-15T10:59:59;4.40;99.90
14283;DHT22;7225;59.282;18.344;2023-02-15T11:07:57;4.40;99.90
14283;DHT22;7225;59.282;18.344;2023-02-15T11:10:39;4.40;99.90
14283;DHT22;7225;59.282;18.344;2023-02-15T11:13:14;4.40;99.90
14283;DHT22;7225;59.282;18.344;2023-02-15T11:23:44;4.30;99.90
14283;DHT22;7225;59.282;18.344;2023-02-15T11:26:36;4.40;99.90
14283;DHT22;7225;59.282;18.344;2023-02-15T11:31:43;4.40;99.90
14283;DHT22;7225;59.282;18.344;2023-02-15T11:34:36;4.40;99.90
14283;DHT22;7225;59.282;18.344;2023-02-15T11:37:18;4.40;99.90
14283;DHT22;7225;59.282;18.344;2023-02-15T11:39:45;4.40;99.90
14283;DHT22;7225;59.282;18.344;2023-02-15T11:42:21;4.40;99.90
14283;DHT22;7225;59.282;18.344;2023-02-15T11:45:04;4.40;99.90
14283;DHT22;7225;59.282;18.344;2023-02-15T11:47:32;4.40;99.90
14283;DHT22;7225;59.282;18.344;2023-02-15T11:49:59;4.40;99.90
14283;DHT22;7225;59.282;18.344;2023-02-15T11:52:26;4.40;99.90
14283;DHT22;7225;59.282;18.344;2023-02-15T11:54:54;4.50;99.90
14283;DHT22;7225;59.282;18.344;2023-02-15T11:58:09;4.40;99.90
14283;DHT22;7225;59.282;18.344;2023-02-15T12:00:43;4.40;99.90
14283;DHT22;7225;59.282;18.344;2023-02-15T12:06:04;4.30;99.90
14283;DHT22;7225;59.282;18.344;2023-02-15T12:08:38;4.30;99.90
14283;DHT22;7225;59.282;18.344;2023-02-15T12:11:10;4.40;99.90
14283;DHT22;7225;59.282;18.344;2023-02-15T12:16:22;4.40;99.90
14283;DHT22;7225;59.282;18.344;2023-02-15T12:18:50;4.30;99.90
14283;DHT22;7225;59.282;18.344;2023-02-15T12:21:29;4.30;99.90
14283;DHT22;7225;59.282;18.344;2023-02-15T12:24:03;4.30;99.90
14283;DHT22;7225;59.282;18.344;2023-02-15T12:26:35;4.40;99.90
14283;DHT22;7225;59.282;18.344;2023-02-15T12:29:24;4.30;99.90
14283;DHT22;7225;59.282;18.344;2023-02-15T12:31:52;4.30;99.90
14283;DHT22;7225;59.282;18.344;2023-02-15T12:34:27;4.30;99.90
14283;DHT22;7225;59.282;18.344;2023-02-15T12:37:00;4.30;99.90
14283;DHT22;7225;59.282;18.344;2023-02-15T12:39:30;4.20;99.90
14283;DHT22;7225;59.282;18.344;2023-02-15T12:42:01;4.20;99.90
14283;DHT22;7225;59.282;18.344;2023-02-15T12:44:34;4.30;99.90
14283;DHT22;7225;59.282;18.344;2023-02-15T12:47:21;4.30;99.90
14283;DHT22;7225;59.282;18.344;2023-02-15T12:50:24;4.20;99.90
14283;DHT22;7225;59.282;18.344;2023-02-15T12:53:23;4.20;99.90
14283;DHT22;7225;59.282;18.344;2023-02-15T12:56:01;4.20;99.90
14283;DHT22;7225;59.282;18.344;2023-02-15T12:58:34;4.20;99.90
14283;DHT22;7225;59.282;18.344;2023-02-15T13:01:15;4.20;99.90
14283;DHT22;7225;59.282;18.344;2023-02-15T13:06:24;4.20;99.90
14283;DHT22;7225;59.282;18.344;2023-02-15T13:08:54;4.20;99.90
14283;DHT22;7225;59.282;18.344;2023-02-15T13:11:31;4.20;99.90
14283;DHT22;7225;59.282;18.344;2023-02-15T13:14:03;4.20;99.90
14283;DHT22;7225;59.282;18.344;2023-02-15T13:16:41;4.20;99.90
14283;DHT22;7225;59.282;18.344;2023-02-15T13:19:17;4.20;99.90
14283;DHT22;7225;59.282;18.344;2023-02-15T13:21:47;4.20;99.90
14283;DHT22;7225;59.282;18.344;2023-02-15T13:26:49;4.30;99.90
14283;DHT22;7225;59.282;18.344;2023-02-15T13:29:30;4.30;99.90
14283;DHT22;7225;59.282;18.344;2023-02-15T13:32:15;4.30;99.90
14283;DHT22;7225;59.282;18.344;2023-02-15T13:34:48;4.30;99.90
14283;DHT22;7225;59.282;18.344;2023-02-15T13:37:20;4.30;99.90
14283;DHT22;7225;59.282;18.344;2023-02-15T13:39:57;4.30;99.90
14283;DHT22;7225;59.282;18.344;2023-02-15T13:43:05;4.20;99.90
14283;DHT22;7225;59.282;18.344;2023-02-15T14:08:20;4.20;99.90
14283;DHT22;7225;59.282;18.344;2023-02-15T14:10:55;4.20;99.90
14283;DHT22;7225;59.282;18.344;2023-02-15T14:19:15;4.20;99.90
14283;DHT22;7225;59.282;18.344;2023-02-15T14:30:03;4.20;99.90
14283;DHT22;7225;59.282;18.344;2023-02-15T14:32:47;4.10;99.90
14283;DHT22;7225;59.282;18.344;2023-02-15T14:35:19;4.10;99.90
14283;DHT22;7225;59.282;18.344;2023-02-15T14:37:57;4.10;99.90
14283;DHT22;7225;59.282;18.344;2023-02-15T14:49:12;4.10;99.90
14283;DHT22;7225;59.282;18.344;2023-02-15T15:04:39;4.00;99.90
14283;DHT22;7225;59.282;18.344;2023-02-15T15:09:48;3.90;99.90
14283;DHT22;7225;59.282;18.344;2023-02-15T15:14:52;3.90;99.90
14283;DHT22;7225;59.282;18.344;2023-02-15T15:20:47;3.80;99.90
14283;DHT22;7225;59.282;18.344;2023-02-15T15:22:47;3.80;99.90
14283;DHT22;7225;59.282;18.344;2023-02-15T15:28:05;3.80;99.90
14283;DHT22;7225;59.282;18.344;2023-02-15T15:33:17;3.80;99.90
14283;DHT22;7225;59.282;18.344;2023-02-15T15:42:04;3.70;99.90
14283;DHT22;7225;59.282;18.344;2023-02-15T15:50:24;3.70;99.90
14283;DHT22;7225;59.282;18.344;2023-02-15T15:52:54;3.70;99.90
14283;DHT22;7225;59.282;18.344;2023-02-15T15:55:23;3.70;99.90
14283;DHT22;7225;59.282;18.344;2023-02-15T15:57:55;3.70;99.90
14283;DHT22;7225;59.282;18.344;2023-02-15T16:00:51;3.70;99.90
14283;DHT22;7225;59.282;18.344;2023-02-15T16:03:24;3.70;99.90
14283;DHT22;7225;59.282;18.344;2023-02-15T16:05:52;3.70;99.90
14283;DHT22;7225;59.282;18.344;2023-02-15T16:08:33;3.60;99.90
14283;DHT22;7225;59.282;18.344;2023-02-15T16:11:16;3.60;99.90
14283;DHT22;7225;59.282;18.344;2023-02-15T16:13:45;3.60;99.90
14283;DHT22;7225;59.282;18.344;2023-02-15T16:16:13;3.60;99.90
14283;DHT22;7225;59.282;18.344;2023-02-15T16:18:46;3.50;99.90
14283;DHT22;7225;59.282;18.344;2023-02-15T16:21:22;3.50;99.90
14283;DHT22;7225;59.282;18.344;2023-02-15T16:24:14;3.40;99.90
14283;DHT22;7225;59.282;18.344;2023-02-15T16:29:33;3.40;99.90
14283;DHT22;7225;59.282;18.344;2023-02-15T16:32:21;3.40;99.90
14283;DHT22;7225;59.282;18.344;2023-02-15T16:34:56;3.40;99.90
14283;DHT22;7225;59.282;18.344;2023-02-15T16:37:31;3.40;99.90
14283;DHT22;7225;59.282;18.344;2023-02-15T16:39:59;3.40;99.90
14283;DHT22;7225;59.282;18.344;2023-02-15T16:42:26;3.40;99.90
14283;DHT22;7225;59.282;18.344;2023-02-15T16:45:08;3.40;99.90
14283;DHT22;7225;59.282;18.344;2023-02-15T16:47:41;3.40;99.90
14283;DHT22;7225;59.282;18.344;2023-02-15T16:50:18;3.40;99.90
14283;DHT22;7225;59.282;18.344;2023-02-15T16:52:46;3.30;99.90
14283;DHT22;7225;59.282;18.344;2023-02-15T16:55:24;3.30;99.90
14283;DHT22;7225;59.282;18.344;2023-02-15T16:57:56;3.30;99.90
14283;DHT22;7225;59.282;18.344;2023-02-15T17:00:26;3.30;99.90
14283;DHT22;7225;59.282;18.344;2023-02-15T17:03:06;3.30;99.90
14283;DHT22;7225;59.282;18.344;2023-02-15T17:05:48;3.30;99.90
14283;DHT22;7225;59.282;18.344;2023-02-15T17:08:34;3.30;99.90
14283;DHT22;7225;59.282;18.344;2023-02-15T17:13:35;3.20;99.90
14283;DHT22;7225;59.282;18.344;2023-02-15T17:18:31;3.20;99.90
14283;DHT22;7225;59.282;18.344;2023-02-15T17:21:08;3.20;99.90
14283;DHT22;7225;59.282;18.344;2023-02-15T17:23:41;3.20;99.90
14283;DHT22;7225;59.282;18.344;2023-02-15T17:26:16;3.20;99.90
14283;DHT22;7225;59.282;18.344;2023-02-15T17:28:50;3.20;99.90
14283;DHT22;7225;59.282;18.344;2023-02-15T17:31:20;3.20;99.90
14283;DHT22;7225;59.282;18.344;2023-02-15T17:33:47;3.10;99.90
14283;DHT22;7225;59.282;18.344;2023-02-15T17:36:20;3.20;99.90
14283;DHT22;7225;59.282;18.344;2023-02-15T17:39:06;3.20;99.90
14283;DHT22;7225;59.282;18.344;2023-02-15T17:41:37;3.20;99.90
14283;DHT22;7225;59.282;18.344;2023-02-15T17:44:04;3.20;99.90
14283;DHT22;7225;59.282;18.344;2023-02-15T17:46:34;3.20;99.90
14283;DHT22;7225;59.282;18.344;2023-02-15T17:49:02;3.20;99.90
14283;DHT22;7225;59.282;18.344;2023-02-15T17:51:31;3.10;99.90
14283;DHT22;7225;59.282;18.344;2023-02-15T17:53:58;3.10;99.90
14283;DHT22;7225;59.282;18.344;2023-02-15T17:56:43;3.10;99.90
14283;DHT22;7225;59.282;18.344;2023-02-15T17:59:10;3.10;99.90
14283;DHT22;7225;59.282;18.344;2023-02-15T18:01:47;3.10;99.90
14283;DHT22;7225;59.282;18.344;2023-02-15T18:04:35;3.10;99.90
14283;DHT22;7225;59.282;18.344;2023-02-15T18:07:21;3.10;99.90
14283;DHT22;7225;59.282;18.344;2023-02-15T18:10:14;3.10;99.90
14283;DHT22;7225;59.282;18.344;2023-02-15T18:13:00;3.00;99.90
14283;DHT22;7225;59.282;18.344;2023-02-15T18:15:28;3.00;99.90
14283;DHT22;7225;59.282;18.344;2023-02-15T18:17:56;3.00;99.90
14283;DHT22;7225;59.282;18.344;2023-02-15T18:20:25;3.00;99.90
14283;DHT22;7225;59.282;18.344;2023-02-15T18:22:54;3.00;99.90
14283;DHT22;7225;59.282;18.344;2023-02-15T18:25:22;3.00;99.90
14283;DHT22;7225;59.282;18.344;2023-02-15T18:27:52;3.00;99.90
14283;DHT22;7225;59.282;18.344;2023-02-15T18:30:23;3.00;99.90
14283;DHT22;7225;59.282;18.344;2023-02-15T18:32:54;3.00;99.90
14283;DHT22;7225;59.282;18.344;2023-02-15T18:35:25;3.00;99.90
14283;DHT22;7225;59.282;18.344;2023-02-15T18:37:54;3.00;99.90
14283;DHT22;7225;59.282;18.344;2023-02-15T18:40:24;2.90;99.90
14283;DHT22;7225;59.282;18.344;2023-02-15T18:42:52;3.00;99.90
14283;DHT22;7225;59.282;18.344;2023-02-15T18:47:49;2.90;99.90
14283;DHT22;7225;59.282;18.344;2023-02-15T18:50:18;3.00;99.90
14283;DHT22;7225;59.282;18.344;2023-02-15T18:52:47;3.00;99.90
14283;DHT22;7225;59.282;18.344;2023-02-15T18:55:18;2.90;99.90
14283;DHT22;7225;59.282;18.344;2023-02-15T18:57:47;2.90;99.90
14283;DHT22;7225;59.282;18.344;2023-02-15T19:00:23;2.90;99.90
14283;DHT22;7225;59.282;18.344;2023-02-15T19:02:51;2.90;99.90
14283;DHT22;7225;59.282;18.344;2023-02-15T19:05:20;2.80;99.90
14283;DHT22;7225;59.282;18.344;2023-02-15T19:07:49;2.80;99.90
14283;DHT22;7225;59.282;18.344;2023-02-15T19:10:19;2.80;99.90
14283;DHT22;7225;59.282;18.344;2023-02-15T19:12:47;2.80;99.90
14283;DHT22;7225;59.282;18.344;2023-02-15T19:15:17;2.80;99.90
14283;DHT22;7225;59.282;18.344;2023-02-15T19:17:44;2.70;99.90
14283;DHT22;7225;59.282;18.344;2023-02-15T19:20:16;2.80;99.90
14283;DHT22;7225;59.282;18.344;2023-02-15T19:22:45;2.70;99.90
14283;DHT22;7225;59.282;18.344;2023-02-15T19:25:18;2.70;99.90
14283;DHT22;7225;59.282;18.344;2023-02-15T19:27:46;2.70;99.90
14283;DHT22;7225;59.282;18.344;2023-02-15T19:30:21;2.70;99.90